Time;durP1;ratioP1;P1;durP2;ratioP2;P2;SDS_P1;SDS_P2;PMS_P1;PMS_P2;Temp;Humidity;BMP_temperature;BMP_pressure;BME280_temperature;BME280_humidity;BME280_pressure;Samples;Min_cycle;Max_cycle;Signal;HPM_P1;HPM_P2
2021/10/07 09:19:52;;;;;;;32.13;16.98;;;11.30;99.90;;;;;;5112089;27;20569;-88
2021/10/07 09:22:28;;;;;;;31.58;15.82;;;11.30;99.90;;;;;;5093310;28;20175;-88
2021/10/07 09:25:03;;;;;;;35.03;17.10;;;11.40;99.90;;;;;;5093229;28;20167;-87
2021/10/07 09:27:31;;;;;;;32.80;16.42;;;11.40;99.90;;;;;;5111296;28;20174;-87
2021/10/07 09:29:59;;;;;;;33.13;17.88;;;12.20;99.90;;;;;;5093162;28;20261;-88
2021/10/07 09:32:40;;;;;;;29.42;16.33;;;11.50;99.90;;;;;;5094512;28;20326;-88
2021/10/07 09:35:08;;;;;;;29.98;16.40;;;11.50;99.90;;;;;;5111263;28;20155;-88
2021/10/07 09:37:39;;;;;;;35.00;16.55;;;11.60;99.90;;;;;;5109923;28;20178;-87
2021/10/07 09:40:18;;;;;;;33.58;17.38;;;11.70;99.90;;;;;;5109963;28;20167;-87
2021/10/07 09:42:50;;;;;;;34.38;17.63;;;11.80;99.90;;;;;;5109896;28;20159;-91
2021/10/07 09:45:18;;;;;;;32.47;16.77;;;11.90;99.90;;;;;;5111182;28;20159;-82
2021/10/07 09:47:49;;;;;;;31.45;16.65;;;11.20;99.90;;;;;;5111225;28;20175;-87
2021/10/07 09:50:22;;;;;;;31.38;17.45;;;11.90;99.90;;;;;;5110990;28;20228;-83
2021/10/07 09:53:00;;;;;;;28.25;15.35;;;11.90;99.90;;;;;;5111369;28;20167;-83
2021/10/07 09:55:32;;;;;;;22.42;13.27;;;12.30;99.90;;;;;;5111163;28;20632;-83
2021/10/07 09:58:00;;;;;;;24.17;13.95;;;12.10;99.90;;;;;;5110832;28;20228;-84
2021/10/07 10:00:29;;;;;;;20.55;13.63;;;12.10;99.90;;;;;;5111098;27;20256;-81
2021/10/07 10:02:57;;;;;;;24.60;15.15;;;12.30;99.90;;;;;;5110552;28;20163;-81
2021/10/07 10:05:23;;;;;;;26.80;14.73;;;12.50;99.90;;;;;;5110915;28;20163;-82
2021/10/07 10:07:49;;;;;;;23.02;13.75;;;12.50;99.90;;;;;;5110689;28;20308;-82
2021/10/07 10:10:15;;;;;;;19.80;13.35;;;12.70;99.90;;;;;;5109466;28;20179;-83
2021/10/07 10:12:41;;;;;;;20.85;13.40;;;13.00;99.90;;;;;;5110888;28;20613;-81
2021/10/07 10:15:09;;;;;;;26.27;13.07;;;12.70;99.90;;;;;;5110512;28;20175;-80
2021/10/07 10:17:36;;;;;;;15.30;11.70;;;13.00;99.90;;;;;;5110477;28;20171;-77
2021/10/07 10:20:08;;;;;;;19.33;12.20;;;13.10;99.90;;;;;;5111065;28;20163;-87
2021/10/07 10:22:34;;;;;;;20.27;12.07;;;12.90;99.90;;;;;;5110576;28;20163;-88
2021/10/07 10:25:00;;;;;;;19.48;12.95;;;12.80;99.90;;;;;;5110528;28;20166;-87
2021/10/07 10:27:44;;;;;;;17.17;12.05;;;12.70;99.90;;;;;;5110369;28;20167;-87
2021/10/07 10:30:24;;;;;;;15.90;11.75;;;12.70;99.90;;;;;;5102732;28;20596;-88
2021/10/07 10:32:50;;;;;;;20.15;12.73;;;12.60;99.90;;;;;;5096582;28;20234;-88
2021/10/07 10:35:33;;;;;;;16.08;11.15;;;13.00;99.90;;;;;;5096636;28;20160;-87
2021/10/07 10:37:59;;;;;;;18.23;12.38;;;12.50;99.90;;;;;;5096555;28;20175;-88
2021/10/07 10:40:25;;;;;;;18.90;11.30;;;13.10;99.90;;;;;;5096430;28;20266;-88
2021/10/07 10:43:18;;;;;;;17.63;11.52;;;12.10;99.90;;;;;;5096389;28;20232;-88
2021/10/07 10:45:48;;;;;;;18.88;11.95;;;12.50;99.90;;;;;;5096258;28;20628;-88
2021/10/07 10:48:48;;;;;;;15.13;11.18;;;11.90;99.90;;;;;;5096321;28;20665;-86
2021/10/07 10:51:18;;;;;;;15.48;11.23;;;12.60;99.90;;;;;;5094976;28;20179;-85
2021/10/07 10:54:00;;;;;;;12.52;9.80;;;12.70;99.90;;;;;;5096470;28;20163;-86
2021/10/07 10:56:34;;;;;;;14.07;9.90;;;12.20;99.90;;;;;;5096192;28;20186;-85
2021/10/07 10:59:20;;;;;;;13.95;9.35;;;13.40;99.90;;;;;;5096552;28;20184;-84
2021/10/07 11:02:15;;;;;;;14.40;9.90;;;12.70;99.90;;;;;;5095087;28;20294;-88
2021/10/07 11:04:51;;;;;;;10.15;8.73;;;12.70;99.90;;;;;;5096433;28;20298;-86
2021/10/07 11:07:36;;;;;;;12.40;9.02;;;12.70;99.90;;;;;;5094661;28;20164;-86
2021/10/07 11:10:04;;;;;;;12.95;9.50;;;13.50;99.90;;;;;;5095985;28;20511;-86
2021/10/07 11:12:50;;;;;;;19.80;9.77;;;13.20;99.90;;;;;;5094906;28;20175;-85
2021/10/07 11:15:17;;;;;;;15.35;9.63;;;13.20;99.90;;;;;;5094554;28;20164;-87
2021/10/07 11:17:44;;;;;;;13.85;10.15;;;13.50;99.90;;;;;;5094326;28;20176;-86
2021/10/07 11:20:13;;;;;;;14.02;10.13;;;13.60;99.90;;;;;;5094529;28;20163;-86
2021/10/07 11:22:39;;;;;;;14.20;9.45;;;13.90;99.90;;;;;;5094819;28;20175;-86
2021/10/07 11:25:06;;;;;;;11.48;9.23;;;14.10;99.90;;;;;;5095801;28;20515;-85
2021/10/07 11:27:41;;;;;;;10.45;8.98;;;13.70;99.90;;;;;;5094447;28;20164;-85
2021/10/07 11:30:16;;;;;;;9.98;8.57;;;14.20;99.90;;;;;;5095355;28;20191;-84
2021/10/07 11:32:41;;;;;;;12.35;10.02;;;13.80;99.90;;;;;;5094089;28;20266;-84
2021/10/07 11:35:15;;;;;;;12.02;8.43;;;14.20;99.90;;;;;;5095094;28;20191;-84
2021/10/07 11:37:57;;;;;;;9.55;8.52;;;14.50;99.90;;;;;;5095473;28;20158;-84
2021/10/07 11:40:26;;;;;;;9.70;8.25;;;14.20;99.90;;;;;;5095503;28;20167;-83
2021/10/07 11:42:52;;;;;;;10.57;9.43;;;14.20;99.90;;;;;;5093260;28;20487;-84
2021/10/07 11:45:24;;;;;;;19.95;9.93;;;14.50;99.90;;;;;;5095287;28;20682;-83
2021/10/07 11:47:50;;;;;;;12.52;9.30;;;14.10;99.90;;;;;;5094131;28;20176;-84
2021/10/07 11:50:17;;;;;;;12.82;9.20;;;14.40;99.90;;;;;;5095067;28;20178;-84
2021/10/07 11:52:43;;;;;;;14.18;9.85;;;14.30;99.90;;;;;;5095305;28;20200;-84
2021/10/07 11:55:09;;;;;;;19.42;10.23;;;14.20;99.90;;;;;;5094112;28;20226;-84
2021/10/07 11:57:35;;;;;;;14.80;10.35;;;13.80;99.90;;;;;;5093644;28;20194;-84
2021/10/07 12:00:00;;;;;;;12.88;9.52;;;15.10;99.90;;;;;;5093723;28;20304;-83
2021/10/07 12:02:26;;;;;;;12.73;10.15;;;14.10;99.90;;;;;;5093861;28;20573;-84
2021/10/07 12:05:15;;;;;;;15.15;9.23;;;14.20;99.90;;;;;;5095341;28;20172;-87
2021/10/07 12:07:41;;;;;;;10.60;8.93;;;14.20;99.90;;;;;;5093827;28;20267;-85
2021/10/07 12:10:07;;;;;;;10.77;9.68;;;14.30;99.90;;;;;;5094958;28;20247;-83
2021/10/07 12:12:32;;;;;;;15.25;9.35;;;14.40;99.90;;;;;;5094634;28;20172;-83
2021/10/07 12:14:58;;;;;;;13.38;9.02;;;14.60;99.90;;;;;;5094805;28;20164;-83
2021/10/07 12:17:24;;;;;;;11.13;9.05;;;14.70;99.90;;;;;;5093467;28;20263;-83
2021/10/07 12:19:50;;;;;;;11.43;8.15;;;15.00;99.90;;;;;;5095084;28;20648;-83
2021/10/07 12:22:29;;;;;;;9.25;8.25;;;15.30;99.90;;;;;;5093611;28;20186;-81
2021/10/07 12:25:00;;;;;;;9.55;8.18;;;15.20;99.90;;;;;;5093433;28;20175;-80
2021/10/07 12:27:36;;;;;;;8.52;7.70;;;14.80;99.90;;;;;;5094335;28;20617;-79
2021/10/07 12:30:07;;;;;;;15.73;8.50;;;15.20;99.90;;;;;;5094236;28;20191;-79
2021/10/07 12:32:32;;;;;;;8.90;8.00;;;15.10;99.90;;;;;;5094198;28;20207;-79
2021/10/07 12:34:58;;;;;;;9.88;7.68;;;15.00;99.90;;;;;;5094515;28;20202;-79
2021/10/07 12:37:28;;;;;;;8.85;8.02;;;15.10;99.90;;;;;;5094326;28;20652;-79
2021/10/07 12:39:57;;;;;;;9.07;7.13;;;15.40;99.90;;;;;;5094139;28;20195;-80
2021/10/07 12:42:25;;;;;;;7.72;7.13;;;15.10;99.90;;;;;;5094106;28;20198;-78
2021/10/07 12:44:50;;;;;;;9.30;7.28;;;15.20;99.90;;;;;;5094077;28;20159;-85
2021/10/07 12:47:28;;;;;;;8.75;7.88;;;15.20;99.90;;;;;;5094120;28;20163;-85
2021/10/07 12:49:55;;;;;;;10.02;8.15;;;15.30;99.90;;;;;;5094155;28;20605;-85
2021/10/07 12:52:28;;;;;;;8.50;7.75;;;15.20;99.90;;;;;;5093775;28;20167;-79
2021/10/07 12:55:04;;;;;;;11.73;7.88;;;15.20;99.90;;;;;;5094309;28;20331;-79
2021/10/07 12:57:33;;;;;;;10.32;7.50;;;15.40;99.90;;;;;;5094008;28;20250;-81
2021/10/07 12:59:58;;;;;;;17.75;8.23;;;16.10;99.90;;;;;;5092851;28;20203;-82
2021/10/07 13:02:32;;;;;;;8.93;8.00;;;15.80;99.90;;;;;;5094139;28;20195;-83
2021/10/07 13:05:32;;;;;;;10.50;6.88;;;16.00;99.90;;;;;;5094052;28;20518;-85
2021/10/07 13:08:04;;;;;;;8.20;7.20;;;16.10;99.90;;;;;;5092871;28;20525;-84
2021/10/07 13:10:32;;;;;;;7.75;7.13;;;16.00;99.90;;;;;;5092579;28;20248;-86
2021/10/07 13:12:57;;;;;;;8.57;7.20;;;16.10;99.90;;;;;;5093853;28;20242;-87
2021/10/07 13:15:23;;;;;;;9.48;7.70;;;15.70;99.90;;;;;;5094125;28;20233;-81
2021/10/07 13:17:48;;;;;;;10.07;7.60;;;16.10;99.90;;;;;;5093694;28;20552;-84
2021/10/07 13:20:17;;;;;;;9.93;8.10;;;15.80;99.90;;;;;;5092513;28;20195;-84
2021/10/07 13:22:42;;;;;;;8.02;7.30;;;15.60;99.90;;;;;;5093695;28;20205;-83
2021/10/07 13:25:12;;;;;;;8.98;7.72;;;15.90;99.90;;;;;;5093810;28;20160;-83
2021/10/07 13:27:40;;;;;;;10.13;7.55;;;15.60;99.90;;;;;;5093833;28;20194;-84
2021/10/07 13:30:07;;;;;;;9.68;7.68;;;15.60;99.90;;;;;;5092412;28;20220;-80
2021/10/07 13:32:32;;;;;;;9.43;7.07;;;15.60;99.90;;;;;;5093777;28;20262;-80
2021/10/07 13:34:58;;;;;;;7.88;7.10;;;15.80;99.90;;;;;;5092502;28;20207;-83
2021/10/07 13:37:23;;;;;;;8.00;6.95;;;16.00;99.90;;;;;;5093726;28;20182;-83
2021/10/07 13:39:49;;;;;;;6.93;6.38;;;16.40;99.90;;;;;;5093646;28;20156;-84
2021/10/07 13:42:15;;;;;;;5.70;5.05;;;16.70;99.90;;;;;;5092742;28;20182;-82
2021/10/07 13:44:40;;;;;;;5.70;5.32;;;16.80;99.90;;;;;;5093606;28;20180;-83
2021/10/07 13:47:07;;;;;;;6.55;5.93;;;17.00;99.90;;;;;;5093424;28;20629;-83
2021/10/07 13:49:32;;;;;;;5.45;5.05;;;17.10;99.90;;;;;;5093436;28;20545;-82
2021/10/07 13:51:58;;;;;;;5.65;5.15;;;17.10;99.90;;;;;;5093680;28;20164;-83
2021/10/07 13:54:24;;;;;;;8.57;6.13;;;16.90;99.90;;;;;;5093673;28;20163;-82
2021/10/07 13:56:49;;;;;;;7.28;5.82;;;17.10;99.90;;;;;;5092148;28;20168;-83
2021/10/07 13:59:16;;;;;;;6.85;5.90;;;16.90;99.90;;;;;;5092373;28;20262;-83
2021/10/07 14:01:41;;;;;;;5.93;5.43;;;17.10;99.90;;;;;;5093457;28;20175;-83
2021/10/07 14:04:07;;;;;;;7.78;6.93;;;17.00;99.90;;;;;;5092316;28;20180;-82
2021/10/07 14:06:32;;;;;;;6.03;5.18;;;17.10;99.90;;;;;;5097158;28;20203;-83
2021/10/07 14:08:59;;;;;;;6.00;5.50;;;17.30;99.90;;;;;;5095904;28;20248;-83
2021/10/07 14:11:29;;;;;;;6.43;5.60;;;17.00;99.90;;;;;;5097565;28;20239;-84
2021/10/07 14:13:55;;;;;;;5.80;5.35;;;16.90;99.90;;;;;;5095892;28;20163;-79
2021/10/07 14:16:21;;;;;;;6.75;5.85;;;17.00;99.90;;;;;;5097029;28;20178;-80
2021/10/07 14:18:47;;;;;;;6.97;6.28;;;17.00;99.90;;;;;;5096795;28;20250;-78
2021/10/07 14:21:13;;;;;;;6.78;6.18;;;17.10;99.90;;;;;;5096829;28;20218;-78
2021/10/07 14:23:43;;;;;;;5.45;5.05;;;17.20;99.90;;;;;;5096687;28;20259;-78
2021/10/07 14:26:09;;;;;;;6.63;5.70;;;17.30;99.90;;;;;;5096723;28;20199;-78
2021/10/07 14:28:35;;;;;;;8.80;5.90;;;16.80;99.90;;;;;;5097072;28;20234;-78
2021/10/07 14:31:01;;;;;;;6.18;5.68;;;16.60;99.90;;;;;;5096455;28;20198;-79
2021/10/07 14:33:27;;;;;;;6.15;5.68;;;16.60;99.90;;;;;;5096736;28;20251;-80
2021/10/07 14:35:52;;;;;;;6.10;5.65;;;16.40;99.90;;;;;;5097011;28;20530;-79
2021/10/07 14:38:18;;;;;;;6.75;6.07;;;16.70;99.90;;;;;;5096893;28;20175;-79
2021/10/07 14:40:44;;;;;;;5.93;5.40;;;16.90;99.90;;;;;;5096735;28;20591;-82
2021/10/07 14:43:10;;;;;;;6.38;5.78;;;16.00;99.90;;;;;;5096554;28;20267;-82
2021/10/07 14:45:35;;;;;;;7.05;5.43;;;16.20;99.90;;;;;;5096867;28;20198;-79
2021/10/07 14:48:01;;;;;;;7.50;6.30;;;15.90;99.90;;;;;;5095173;28;20192;-80
2021/10/07 14:50:27;;;;;;;6.65;5.97;;;15.90;99.90;;;;;;5096588;28;20210;-79
2021/10/07 14:52:53;;;;;;;6.43;5.82;;;15.80;99.90;;;;;;5096399;28;20168;-80
2021/10/07 14:55:19;;;;;;;6.30;5.70;;;15.80;99.90;;;;;;5096593;28;20174;-81
2021/10/07 14:57:45;;;;;;;6.57;5.97;;;15.70;99.90;;;;;;5096541;28;20174;-80
2021/10/07 15:00:14;;;;;;;6.22;5.70;;;15.70;99.90;;;;;;5096269;28;20168;-79
2021/10/07 15:02:41;;;;;;;6.38;5.88;;;15.60;99.90;;;;;;5096097;28;20191;-80
2021/10/07 15:05:13;;;;;;;6.57;5.97;;;15.50;99.90;;;;;;5096124;28;20168;-80
2021/10/07 15:07:39;;;;;;;6.25;5.75;;;15.80;99.90;;;;;;5096132;28;20233;-80
2021/10/07 15:10:07;;;;;;;7.43;6.45;;;15.90;99.90;;;;;;5096143;28;20166;-80
2021/10/07 15:12:34;;;;;;;9.10;6.53;;;15.30;99.90;;;;;;5096229;28;20164;-80
2021/10/07 15:15:00;;;;;;;6.55;5.95;;;15.40;99.90;;;;;;5094816;28;20593;-79
2021/10/07 15:17:26;;;;;;;10.25;5.95;;;15.30;99.90;;;;;;5095530;28;20194;-80
2021/10/07 15:19:52;;;;;;;6.60;6.10;;;15.10;99.90;;;;;;5094885;28;20252;-80
2021/10/07 15:22:20;;;;;;;6.85;6.25;;;16.20;99.90;;;;;;5096079;28;20160;-80
2021/10/07 15:24:45;;;;;;;6.25;5.75;;;15.90;99.90;;;;;;5095988;28;20605;-80
2021/10/07 15:27:11;;;;;;;7.65;6.78;;;16.40;99.90;;;;;;5095762;28;20179;-80
2021/10/07 15:29:37;;;;;;;6.65;6.20;;;16.60;99.90;;;;;;5095455;28;20606;-80
2021/10/07 15:32:05;;;;;;;7.03;6.20;;;16.60;99.90;;;;;;5095849;28;20156;-80
2021/10/07 15:34:31;;;;;;;6.22;5.65;;;16.70;99.90;;;;;;5095903;28;20167;-83
2021/10/07 15:36:57;;;;;;;5.88;5.35;;;16.80;99.90;;;;;;5095535;28;20149;-83
2021/10/07 15:39:26;;;;;;;5.85;5.43;;;17.50;99.90;;;;;;5094237;28;20171;-83
2021/10/07 15:41:53;;;;;;;5.28;4.75;;;17.10;99.90;;;;;;5095556;28;20557;-84
2021/10/07 15:44:20;;;;;;;5.90;5.25;;;17.30;99.90;;;;;;5095427;28;20168;-84
2021/10/07 15:46:46;;;;;;;6.57;5.45;;;17.20;99.90;;;;;;5095420;28;20152;-84
2021/10/07 15:49:12;;;;;;;5.47;5.07;;;17.80;99.90;;;;;;5095245;28;20214;-84
2021/10/07 15:51:38;;;;;;;6.22;5.40;;;17.40;99.90;;;;;;5095884;28;20152;-84
2021/10/07 15:54:07;;;;;;;10.57;6.57;;;17.50;99.90;;;;;;5095737;28;20251;-78
2021/10/07 15:56:33;;;;;;;6.90;5.55;;;17.30;99.90;;;;;;5095261;28;20167;-79
2021/10/07 15:58:59;;;;;;;5.63;5.25;;;17.20;99.90;;;;;;5095158;28;20164;-80
2021/10/07 16:01:26;;;;;;;5.32;4.82;;;17.10;99.90;;;;;;5094999;28;20172;-79
2021/10/07 16:03:51;;;;;;;6.22;5.18;;;17.00;99.90;;;;;;5094666;28;20168;-79
2021/10/07 16:06:18;;;;;;;5.60;5.25;;;17.00;99.90;;;;;;5094972;28;20203;-79
2021/10/07 16:08:44;;;;;;;6.70;5.03;;;16.70;99.90;;;;;;5093593;28;20203;-79
2021/10/07 16:11:10;;;;;;;6.13;5.65;;;16.50;99.90;;;;;;5094790;28;20247;-79
2021/10/07 16:13:36;;;;;;;6.90;6.03;;;16.40;99.90;;;;;;5094745;28;20597;-79
2021/10/07 16:16:02;;;;;;;6.18;5.68;;;16.30;99.90;;;;;;5094622;28;20171;-79
2021/10/07 16:18:27;;;;;;;5.80;5.40;;;16.20;99.90;;;;;;5094515;28;20573;-79
2021/10/07 16:20:55;;;;;;;6.90;5.90;;;16.10;99.90;;;;;;5094510;28;20174;-79
2021/10/07 16:23:21;;;;;;;9.57;6.88;;;15.90;99.90;;;;;;5094558;28;20164;-78
2021/10/07 16:25:50;;;;;;;8.85;6.43;;;15.70;99.90;;;;;;5094516;28;20190;-78
2021/10/07 16:28:21;;;;;;;6.63;6.10;;;16.20;99.90;;;;;;5093952;28;20196;-77
2021/10/07 16:30:46;;;;;;;6.25;5.72;;;15.40;99.90;;;;;;5094551;28;20172;-77
2021/10/07 16:33:14;;;;;;;7.72;6.47;;;15.40;99.90;;;;;;5093103;28;20164;-76
2021/10/07 16:35:44;;;;;;;14.70;6.40;;;15.00;99.90;;;;;;5094301;28;20206;-76
2021/10/07 16:38:11;;;;;;;7.90;7.20;;;15.20;99.90;;;;;;5094472;28;20241;-77
2021/10/07 16:40:39;;;;;;;12.13;6.95;;;15.50;99.90;;;;;;5094202;28;20164;-77
2021/10/07 16:43:05;;;;;;;7.35;6.75;;;14.50;99.90;;;;;;5094306;28;20198;-90
2021/10/07 16:45:32;;;;;;;7.05;6.32;;;14.20;99.90;;;;;;5093330;28;20178;-91
2021/10/07 16:47:58;;;;;;;7.18;6.57;;;14.00;99.90;;;;;;5094892;28;20214;-91
2021/10/07 16:50:24;;;;;;;12.13;6.78;;;13.90;99.90;;;;;;5093467;28;20164;-92
2021/10/07 16:52:50;;;;;;;10.32;7.57;;;13.70;99.90;;;;;;5094806;28;20594;-92
2021/10/07 16:55:16;;;;;;;8.77;7.88;;;13.50;99.90;;;;;;5094802;28;20253;-92
